Time;durP1;ratioP1;P1;durP2;ratioP2;P2;SDS_P1;SDS_P2;PMS_P1;PMS_P2;Temp;Humidity;BMP_temperature;BMP_pressure;BME280_temperature;BME280_humidity;BME280_pressure;Samples;Min_cycle;Max_cycle;Signal;HPM_P1;HPM_P2
2021/12/29 00:00:36;;;;;;;5.40;3.13;;;16.40;56.70;;;;;;5028893;28;21014;-81
2021/12/29 00:03:04;;;;;;;4.83;2.90;;;16.40;56.70;;;;;;5027378;28;20440;-82
2021/12/29 00:05:34;;;;;;;5.00;3.00;;;16.40;56.70;;;;;;5022125;28;20467;-82
2021/12/29 00:08:02;;;;;;;4.57;2.93;;;16.40;56.80;;;;;;5031852;28;20452;-81
2021/12/29 00:10:30;;;;;;;5.73;3.43;;;16.40;56.80;;;;;;5032054;28;20477;-82
2021/12/29 00:12:58;;;;;;;4.30;3.07;;;16.40;56.70;;;;;;5028089;28;20550;-82
2021/12/29 00:15:27;;;;;;;4.07;3.00;;;16.40;56.80;;;;;;5029907;28;20451;-81
2021/12/29 00:17:56;;;;;;;3.40;3.10;;;16.40;56.80;;;;;;5030781;28;20915;-81
2021/12/29 00:20:28;;;;;;;4.40;2.90;;;16.40;56.90;;;;;;5031855;27;20449;-81
2021/12/29 00:22:58;;;;;;;4.27;3.50;;;16.40;56.90;;;;;;5032747;28;20546;-80
2021/12/29 00:25:26;;;;;;;3.23;3.00;;;16.40;56.80;;;;;;5034747;28;20543;-80
2021/12/29 00:27:54;;;;;;;7.33;3.23;;;16.40;56.90;;;;;;5029813;28;20527;-79
2021/12/29 00:30:22;;;;;;;5.43;2.53;;;16.40;56.90;;;;;;5027610;28;20523;-79
2021/12/29 00:32:50;;;;;;;3.37;3.07;;;16.40;56.90;;;;;;5023597;28;20509;-79
2021/12/29 00:35:18;;;;;;;4.13;2.93;;;16.40;56.90;;;;;;5031796;28;20478;-79
2021/12/29 00:37:46;;;;;;;3.00;2.77;;;16.40;57.00;;;;;;5027796;28;20540;-79
2021/12/29 00:40:15;;;;;;;4.00;3.13;;;16.40;57.00;;;;;;5022128;28;20575;-80
2021/12/29 00:42:43;;;;;;;4.70;3.50;;;16.40;57.00;;;;;;5018644;28;20452;-79
2021/12/29 00:45:11;;;;;;;4.27;3.00;;;16.40;57.10;;;;;;5023152;28;20505;-79
2021/12/29 00:47:39;;;;;;;3.80;3.40;;;16.40;57.10;;;;;;5018486;28;20522;-79
2021/12/29 00:50:10;;;;;;;4.00;2.77;;;16.40;57.00;;;;;;5017294;28;20482;-79
2021/12/29 00:52:38;;;;;;;3.57;3.27;;;16.40;57.00;;;;;;5021877;28;20492;-79
2021/12/29 00:55:06;;;;;;;3.43;2.80;;;16.40;57.10;;;;;;5024324;28;20467;-79
2021/12/29 00:57:35;;;;;;;3.20;2.63;;;16.40;57.10;;;;;;5020716;28;20468;-79
2021/12/29 01:00:04;;;;;;;6.10;3.57;;;16.40;57.10;;;;;;5019419;28;20916;-79
2021/12/29 01:02:31;;;;;;;4.33;3.50;;;16.40;57.10;;;;;;5017753;28;20527;-80
2021/12/29 01:05:00;;;;;;;4.17;3.43;;;16.40;57.10;;;;;;5019723;28;21026;-80
2021/12/29 01:07:28;;;;;;;4.53;3.13;;;16.40;57.00;;;;;;5018216;28;20543;-79
2021/12/29 01:09:56;;;;;;;8.40;3.00;;;16.40;57.20;;;;;;5019024;28;20451;-79
2021/12/29 01:12:23;;;;;;;6.37;3.40;;;16.40;57.10;;;;;;5018810;28;20523;-78
2021/12/29 01:14:55;;;;;;;4.70;3.60;;;16.40;57.20;;;;;;5020939;28;20481;-79
2021/12/29 01:17:23;;;;;;;4.30;3.30;;;16.40;57.20;;;;;;5015520;28;20543;-79
2021/12/29 01:19:53;;;;;;;5.30;3.20;;;16.40;57.10;;;;;;5018772;28;20547;-80
2021/12/29 01:22:21;;;;;;;5.10;2.80;;;16.40;57.20;;;;;;5016506;28;20524;-79
2021/12/29 01:24:49;;;;;;;6.17;3.13;;;16.40;57.10;;;;;;5017862;28;20476;-79
2021/12/29 01:27:17;;;;;;;3.33;3.03;;;16.40;57.20;;;;;;5018833;28;20454;-81
2021/12/29 01:29:46;;;;;;;3.70;3.30;;;16.40;57.20;;;;;;5020669;28;20444;-79
2021/12/29 01:32:15;;;;;;;4.37;3.33;;;16.40;57.20;;;;;;5019756;28;20462;-80
2021/12/29 01:34:43;;;;;;;4.70;3.30;;;16.40;57.20;;;;;;5023376;28;20539;-82
2021/12/29 01:37:11;;;;;;;5.47;3.23;;;16.40;57.40;;;;;;5026589;28;20923;-82
2021/12/29 01:39:38;;;;;;;3.10;2.90;;;16.40;57.30;;;;;;5022555;27;20555;-81
2021/12/29 01:42:06;;;;;;;4.90;3.10;;;16.40;57.30;;;;;;5027807;27;20542;-81
2021/12/29 01:44:36;;;;;;;4.03;3.10;;;16.40;57.30;;;;;;5033724;28;20893;-81
2021/12/29 01:47:05;;;;;;;3.83;3.37;;;16.40;57.30;;;;;;5023621;28;21021;-81
2021/12/29 01:49:34;;;;;;;4.33;3.30;;;16.40;57.30;;;;;;5035534;28;20489;-81
2021/12/29 01:52:10;;;;;;;3.60;3.10;;;16.40;57.30;;;;;;5036477;28;20555;-81
2021/12/29 01:54:38;;;;;;;7.43;3.33;;;16.40;57.30;;;;;;5035774;28;20459;-81
2021/12/29 01:57:10;;;;;;;3.57;3.27;;;16.40;57.40;;;;;;5036658;28;20446;-81
2021/12/29 01:59:38;;;;;;;4.60;3.27;;;16.40;57.40;;;;;;5035898;28;20432;-81
2021/12/29 02:02:06;;;;;;;5.80;3.23;;;16.40;57.30;;;;;;5035302;27;20546;-81
2021/12/29 02:04:35;;;;;;;3.63;2.97;;;16.40;57.30;;;;;;5033644;28;20483;-81
2021/12/29 02:07:04;;;;;;;4.70;3.50;;;16.40;57.50;;;;;;5035628;28;20432;-79
2021/12/29 02:09:32;;;;;;;5.97;3.13;;;16.40;57.40;;;;;;5028154;28;20531;-80
2021/12/29 02:12:00;;;;;;;3.50;3.20;;;16.40;57.40;;;;;;5024166;28;20483;-81
2021/12/29 02:14:27;;;;;;;4.63;2.90;;;16.40;57.40;;;;;;5044150;28;20479;-81
2021/12/29 02:16:55;;;;;;;3.30;3.00;;;16.50;57.60;;;;;;5042781;28;20464;-80
2021/12/29 02:19:25;;;;;;;2.90;2.70;;;16.40;57.40;;;;;;5033605;28;20510;-80
2021/12/29 02:22:02;;;;;;;5.93;3.23;;;16.50;57.50;;;;;;5034133;28;20468;-80
2021/12/29 02:24:38;;;;;;;5.00;3.23;;;16.40;57.60;;;;;;5015773;28;20543;-80
2021/12/29 02:27:06;;;;;;;3.50;3.20;;;16.40;57.50;;;;;;5030798;28;20550;-79
2021/12/29 02:29:34;;;;;;;3.30;3.10;;;16.40;57.60;;;;;;5034919;28;20520;-82
2021/12/29 02:32:02;;;;;;;5.90;3.03;;;16.40;57.60;;;;;;5023761;28;21041;-79
2021/12/29 02:34:30;;;;;;;4.67;3.60;;;16.40;57.60;;;;;;5015538;28;20461;-79
2021/12/29 02:37:02;;;;;;;3.13;2.93;;;16.40;57.60;;;;;;5018783;28;20546;-80
2021/12/29 02:39:32;;;;;;;4.60;3.23;;;16.40;57.60;;;;;;5015314;28;20531;-80
2021/12/29 02:42:03;;;;;;;6.90;3.40;;;16.40;57.60;;;;;;5015419;28;20480;-80
2021/12/29 02:44:38;;;;;;;3.50;3.17;;;16.40;57.60;;;;;;5024901;28;20502;-80
2021/12/29 02:47:06;;;;;;;3.47;3.10;;;16.40;57.60;;;;;;5034660;28;20479;-79
2021/12/29 02:49:34;;;;;;;3.40;3.10;;;16.40;57.60;;;;;;5034105;28;20567;-80
2021/12/29 02:52:04;;;;;;;4.43;3.30;;;16.40;57.60;;;;;;5021989;28;20459;-80
2021/12/29 02:54:32;;;;;;;5.93;3.10;;;16.40;57.60;;;;;;5025933;28;20531;-80
2021/12/29 02:57:00;;;;;;;3.17;2.87;;;16.40;57.60;;;;;;5023926;28;20515;-80
2021/12/29 02:59:28;;;;;;;4.00;2.80;;;16.40;57.60;;;;;;5023470;28;20522;-80
2021/12/29 03:01:56;;;;;;;5.53;3.33;;;16.50;57.70;;;;;;5025473;28;20431;-80
2021/12/29 03:04:24;;;;;;;3.30;3.00;;;16.40;57.60;;;;;;5024291;28;20527;-80
2021/12/29 03:06:51;;;;;;;3.33;3.07;;;16.40;57.60;;;;;;5021796;28;20510;-80
2021/12/29 03:09:21;;;;;;;3.47;3.17;;;16.40;57.70;;;;;;5025498;28;20522;-81
2021/12/29 03:11:49;;;;;;;4.23;2.93;;;16.40;57.60;;;;;;5027400;28;20429;-79
2021/12/29 03:14:18;;;;;;;3.80;3.50;;;16.40;57.70;;;;;;5025350;28;20491;-80
2021/12/29 03:16:46;;;;;;;6.07;3.20;;;16.40;57.70;;;;;;5024158;28;20459;-79
2021/12/29 03:19:13;;;;;;;4.37;3.40;;;16.40;57.80;;;;;;5025655;28;20441;-81
2021/12/29 03:21:41;;;;;;;4.80;3.00;;;16.40;57.80;;;;;;5023747;28;20515;-81
2021/12/29 03:24:09;;;;;;;4.20;3.23;;;16.40;57.80;;;;;;5024695;28;20504;-81
2021/12/29 03:26:38;;;;;;;3.50;3.20;;;16.40;57.70;;;;;;5021770;28;20570;-81
2021/12/29 03:29:06;;;;;;;4.23;3.37;;;16.40;57.70;;;;;;5021540;28;20438;-79
2021/12/29 03:31:37;;;;;;;5.67;3.20;;;16.30;57.70;;;;;;5018623;28;20958;-78
2021/12/29 03:34:05;;;;;;;3.83;3.40;;;16.40;57.80;;;;;;5019171;28;20450;-79
2021/12/29 03:36:33;;;;;;;5.17;3.50;;;16.40;57.80;;;;;;5017678;28;20498;-79
2021/12/29 03:39:02;;;;;;;3.40;3.17;;;16.40;57.80;;;;;;5019087;28;20508;-79
2021/12/29 03:41:29;;;;;;;3.73;3.23;;;16.40;57.80;;;;;;5018010;28;20543;-79
2021/12/29 03:44:01;;;;;;;3.37;3.07;;;16.40;57.80;;;;;;5014685;28;20488;-78
2021/12/29 03:46:29;;;;;;;3.33;3.07;;;16.30;57.80;;;;;;5026158;27;20480;-78
2021/12/29 03:48:57;;;;;;;3.50;3.20;;;16.40;57.90;;;;;;5023817;28;20445;-79
2021/12/29 03:51:25;;;;;;;4.47;3.67;;;16.40;57.80;;;;;;5037647;28;20501;-80
2021/12/29 03:53:53;;;;;;;3.80;3.40;;;16.40;57.90;;;;;;5020972;28;20499;-79
2021/12/29 03:56:21;;;;;;;4.67;3.50;;;16.40;57.80;;;;;;5032872;28;20519;-79
2021/12/29 03:58:48;;;;;;;4.87;3.70;;;16.40;57.80;;;;;;5033813;27;20538;-79
2021/12/29 04:01:20;;;;;;;4.73;3.53;;;16.40;57.90;;;;;;5024033;27;20466;-79
2021/12/29 04:03:48;;;;;;;4.20;3.17;;;16.40;58.50;;;;;;5033550;28;20459;-79
2021/12/29 04:06:18;;;;;;;3.53;3.23;;;16.40;57.80;;;;;;5030177;28;20562;-79
2021/12/29 04:08:46;;;;;;;5.30;3.20;;;16.40;57.90;;;;;;5030907;28;21011;-79
2021/12/29 04:11:14;;;;;;;3.30;3.00;;;16.40;57.90;;;;;;5033719;28;20982;-79
2021/12/29 04:13:43;;;;;;;6.90;3.37;;;16.40;57.90;;;;;;5033381;28;20467;-79
2021/12/29 04:16:16;;;;;;;3.93;3.60;;;16.40;57.80;;;;;;5034134;28;20510;-79
2021/12/29 04:19:05;;;;;;;3.33;3.00;;;16.30;57.90;;;;;;5033451;28;20440;-79
2021/12/29 04:21:35;;;;;;;3.33;3.03;;;16.40;58.00;;;;;;5033671;28;20423;-78
2021/12/29 04:24:03;;;;;;;3.87;3.43;;;16.40;57.90;;;;;;5031009;28;20649;-79
2021/12/29 04:26:32;;;;;;;3.60;3.30;;;16.40;57.90;;;;;;5028997;28;20471;-79
2021/12/29 04:29:00;;;;;;;5.00;3.20;;;16.40;57.90;;;;;;5019504;28;20439;-79
2021/12/29 04:31:28;;;;;;;3.60;3.30;;;16.40;58.00;;;;;;5033511;28;20530;-79
2021/12/29 04:33:57;;;;;;;3.70;3.10;;;16.40;58.00;;;;;;5033342;28;20550;-79
2021/12/29 04:36:26;;;;;;;3.70;3.37;;;16.40;57.90;;;;;;5034212;28;20531;-79
2021/12/29 04:38:54;;;;;;;3.70;3.10;;;16.40;58.00;;;;;;5033416;28;20471;-80
2021/12/29 04:41:22;;;;;;;5.30;3.33;;;16.40;58.00;;;;;;5028532;28;20570;-79
2021/12/29 04:43:50;;;;;;;5.47;3.40;;;16.40;57.90;;;;;;5031366;28;20491;-79
2021/12/29 04:46:19;;;;;;;4.10;3.27;;;16.40;58.60;;;;;;5023674;28;20483;-80
2021/12/29 04:48:51;;;;;;;3.80;3.50;;;16.40;58.00;;;;;;5032975;28;20972;-79
2021/12/29 04:51:25;;;;;;;4.43;3.50;;;16.40;58.10;;;;;;5034374;28;20455;-79
2021/12/29 04:53:53;;;;;;;5.43;3.50;;;16.40;58.00;;;;;;5032569;28;20466;-79
2021/12/29 04:56:21;;;;;;;3.60;3.10;;;16.40;58.00;;;;;;5028221;28;20527;-79
2021/12/29 04:58:49;;;;;;;3.53;3.13;;;16.40;58.00;;;;;;5026876;28;20443;-79
2021/12/29 05:01:17;;;;;;;6.03;3.27;;;16.40;58.00;;;;;;5027743;28;20458;-79
2021/12/29 05:03:46;;;;;;;4.20;3.50;;;16.40;58.00;;;;;;5031934;28;20452;-79
2021/12/29 05:09:01;;;;;;;4.67;3.37;;;16.30;58.00;;;;;;5031729;28;20471;-79
2021/12/29 05:11:28;;;;;;;4.47;3.27;;;16.30;58.00;;;;;;5032375;28;20600;-79
2021/12/29 05:13:56;;;;;;;4.10;3.70;;;16.30;58.00;;;;;;5034181;28;20531;-80
2021/12/29 05:16:27;;;;;;;3.87;3.47;;;16.30;57.90;;;;;;5030638;28;20499;-79
2021/12/29 05:18:56;;;;;;;3.17;2.93;;;16.30;58.00;;;;;;5035411;28;20435;-79
2021/12/29 05:21:25;;;;;;;3.17;2.97;;;16.30;57.90;;;;;;5036367;28;20444;-80
2021/12/29 05:23:53;;;;;;;3.43;3.13;;;16.40;58.00;;;;;;5037308;28;20443;-79
2021/12/29 05:26:22;;;;;;;4.33;3.57;;;16.40;58.00;;;;;;5036303;28;20511;-79
2021/12/29 05:28:50;;;;;;;3.97;3.50;;;16.40;58.00;;;;;;5036602;28;20493;-79
2021/12/29 05:31:18;;;;;;;3.70;2.93;;;16.40;58.00;;;;;;5032529;27;20459;-81
2021/12/29 05:33:46;;;;;;;3.53;3.23;;;16.40;58.00;;;;;;5033932;28;20486;-79
2021/12/29 05:36:14;;;;;;;4.30;3.30;;;16.40;57.90;;;;;;5036755;28;20440;-80
2021/12/29 05:53:21;;;;;;;;;;;;;;;;;;;;;
2021/12/29 06:00:33;;;;;;;3.63;3.13;;;16.30;57.90;;;;;;4971169;28;20521;-80
2021/12/29 06:14:40;;;;;;;3.43;3.13;;;16.30;58.00;;;;;;5117088;28;20472;-81
2021/12/29 06:24:44;;;;;;;6.77;2.90;;;16.30;58.00;;;;;;5032777;28;20458;-80
2021/12/29 06:30:47;;;;;;;3.17;2.93;;;16.30;58.00;;;;;;5117516;28;20432;-80
2021/12/29 06:33:34;;;;;;;3.37;2.83;;;16.30;58.10;;;;;;5117593;27;20451;-80
2021/12/29 06:36:11;;;;;;;3.27;3.07;;;16.30;58.10;;;;;;5117625;28;20431;-80
2021/12/29 06:38:56;;;;;;;3.13;2.93;;;16.30;58.10;;;;;;5117516;28;20443;-80
2021/12/29 06:41:33;;;;;;;2.90;2.70;;;16.30;58.10;;;;;;5116107;28;20443;-79
2021/12/29 06:44:07;;;;;;;4.87;2.93;;;16.30;58.20;;;;;;5117423;27;20478;-79
2021/12/29 06:46:40;;;;;;;3.40;3.13;;;16.30;58.10;;;;;;5116965;28;20472;-80
2021/12/29 06:49:20;;;;;;;4.00;3.47;;;16.30;58.10;;;;;;5117611;28;20460;-80
2021/12/29 06:52:20;;;;;;;3.93;3.40;;;16.30;58.20;;;;;;5117938;27;20443;-80
2021/12/29 06:59:18;;;;;;;3.60;3.27;;;16.30;58.10;;;;;;5116158;28;20465;-78
2021/12/29 07:02:23;;;;;;;3.50;3.20;;;16.30;58.00;;;;;;5091983;28;20463;-79
2021/12/29 07:04:57;;;;;;;3.33;3.03;;;16.30;58.00;;;;;;5097126;28;20456;-81
2021/12/29 07:07:25;;;;;;;3.50;3.20;;;16.40;58.30;;;;;;5099827;28;20536;-81
2021/12/29 07:09:53;;;;;;;3.50;3.10;;;16.30;58.10;;;;;;5109862;28;20539;-81
2021/12/29 07:12:21;;;;;;;3.07;2.77;;;16.30;58.10;;;;;;5118736;28;20428;-81
2021/12/29 07:14:49;;;;;;;3.20;2.90;;;16.30;58.10;;;;;;5115961;28;20531;-81
2021/12/29 07:17:18;;;;;;;3.97;3.40;;;16.40;58.20;;;;;;5118349;28;20459;-81
2021/12/29 07:19:46;;;;;;;3.33;3.00;;;16.40;58.20;;;;;;5117605;28;20459;-81
2021/12/29 07:22:14;;;;;;;3.20;2.87;;;16.30;58.00;;;;;;5118299;28;20534;-81
2021/12/29 07:24:42;;;;;;;4.60;3.10;;;16.40;58.20;;;;;;5117723;28;21048;-81
2021/12/29 07:27:10;;;;;;;4.07;3.67;;;16.30;58.10;;;;;;5117382;28;20478;-81
2021/12/29 07:29:38;;;;;;;5.23;3.13;;;16.30;58.10;;;;;;5117313;28;20471;-80
2021/12/29 07:32:06;;;;;;;3.20;2.90;;;16.30;58.10;;;;;;5117781;28;20531;-81
2021/12/29 07:34:35;;;;;;;4.40;2.90;;;16.30;58.10;;;;;;5118680;28;20448;-81
2021/12/29 07:37:04;;;;;;;3.30;3.00;;;16.30;58.10;;;;;;5117934;28;20466;-81
2021/12/29 07:39:31;;;;;;;3.83;3.27;;;16.40;58.20;;;;;;5117931;28;20523;-81
2021/12/29 07:41:59;;;;;;;3.40;3.20;;;16.30;58.10;;;;;;5117514;28;20519;-81
2021/12/29 07:44:28;;;;;;;3.60;3.00;;;16.40;58.20;;;;;;5118095;28;20550;-81
2021/12/29 07:46:58;;;;;;;3.00;2.70;;;16.40;58.20;;;;;;5117780;28;20531;-81
2021/12/29 07:49:26;;;;;;;2.90;2.70;;;16.40;58.20;;;;;;5116331;28;20551;-80
2021/12/29 07:51:55;;;;;;;3.30;3.00;;;16.30;58.70;;;;;;5117768;28;20499;-81
2021/12/29 07:54:23;;;;;;;3.40;3.10;;;16.30;58.20;;;;;;5117372;28;20452;-79
2021/12/29 07:56:52;;;;;;;3.70;3.30;;;16.40;58.20;;;;;;5117598;28;20432;-80
2021/12/29 07:59:20;;;;;;;3.83;3.03;;;16.40;58.20;;;;;;5117551;28;20466;-79
2021/12/29 08:01:49;;;;;;;3.03;2.83;;;16.40;58.20;;;;;;5111384;28;20441;-81
2021/12/29 08:04:19;;;;;;;3.80;3.33;;;16.40;58.10;;;;;;5107213;28;21000;-80
2021/12/29 08:06:46;;;;;;;3.27;2.80;;;16.40;58.20;;;;;;5116936;28;20934;-81
2021/12/29 08:09:16;;;;;;;3.17;2.97;;;16.40;58.20;;;;;;5115979;28;20503;-81
2021/12/29 08:11:44;;;;;;;2.97;2.67;;;16.40;58.10;;;;;;5108191;28;20920;-81
2021/12/29 08:14:12;;;;;;;3.20;2.90;;;16.40;58.20;;;;;;5111111;28;20475;-81
2021/12/29 08:16:40;;;;;;;3.77;3.33;;;16.40;58.20;;;;;;5109587;28;20478;-79
2021/12/29 08:19:08;;;;;;;3.40;3.10;;;16.40;58.20;;;;;;5111959;28;21219;-80
2021/12/29 08:21:37;;;;;;;2.90;2.70;;;16.40;58.20;;;;;;5108948;28;20528;-81
2021/12/29 08:24:05;;;;;;;3.07;2.83;;;16.40;58.20;;;;;;5112944;28;20514;-81
2021/12/29 08:26:34;;;;;;;3.90;3.50;;;16.40;58.10;;;;;;5117393;28;20539;-81
2021/12/29 08:29:02;;;;;;;3.53;3.10;;;16.40;58.10;;;;;;5108778;28;20463;-81
2021/12/29 08:31:31;;;;;;;3.33;3.07;;;16.40;58.00;;;;;;5107089;28;20455;-80
2021/12/29 08:33:58;;;;;;;3.30;3.10;;;16.40;58.10;;;;;;5106155;28;20548;-80
2021/12/29 08:36:26;;;;;;;3.10;2.80;;;16.50;58.20;;;;;;5108857;28;20440;-80
2021/12/29 08:38:54;;;;;;;3.70;3.00;;;16.40;58.10;;;;;;5110623;28;20475;-81
2021/12/29 08:41:22;;;;;;;4.23;2.83;;;16.40;58.20;;;;;;5119429;28;20467;-81
2021/12/29 08:43:51;;;;;;;3.20;2.90;;;16.40;58.10;;;;;;5110527;28;20448;-81
2021/12/29 08:46:19;;;;;;;4.10;2.93;;;16.40;58.10;;;;;;5112762;27;20535;-80
2021/12/29 08:48:47;;;;;;;3.47;3.10;;;16.50;58.20;;;;;;5110768;28;20491;-81
2021/12/29 08:51:15;;;;;;;3.07;2.87;;;16.50;58.10;;;;;;5110238;28;20514;-80
2021/12/29 08:53:44;;;;;;;3.33;3.07;;;16.50;58.10;;;;;;5111675;28;20455;-81
2021/12/29 08:56:14;;;;;;;3.70;3.40;;;16.50;58.10;;;;;;5113445;28;20507;-79
2021/12/29 08:58:42;;;;;;;3.30;3.10;;;16.50;58.20;;;;;;5115020;28;20444;-81
2021/12/29 09:01:11;;;;;;;3.50;3.20;;;16.50;58.10;;;;;;5113457;28;20941;-81
2021/12/29 09:03:39;;;;;;;3.67;3.30;;;16.50;58.20;;;;;;5110976;28;20429;-80
2021/12/29 09:06:07;;;;;;;4.90;3.33;;;16.50;58.10;;;;;;5111059;28;20452;-81
2021/12/29 09:08:35;;;;;;;4.17;3.10;;;16.50;58.10;;;;;;5114860;28;20543;-81
2021/12/29 09:11:02;;;;;;;3.57;3.27;;;16.50;58.10;;;;;;5110659;28;20427;-81
2021/12/29 09:13:30;;;;;;;3.37;3.07;;;16.50;58.10;;;;;;5112622;28;20469;-81
2021/12/29 09:15:58;;;;;;;3.60;3.17;;;16.50;58.10;;;;;;5115958;28;20416;-81
2021/12/29 09:18:28;;;;;;;3.63;3.13;;;16.50;58.10;;;;;;5112832;28;20491;-80
2021/12/29 09:20:58;;;;;;;2.63;2.43;;;16.50;57.90;;;;;;5110433;28;20452;-80
2021/12/29 09:23:25;;;;;;;3.47;3.20;;;16.50;58.10;;;;;;5102438;28;20875;-79
2021/12/29 09:25:55;;;;;;;3.87;3.47;;;16.60;58.20;;;;;;5106456;28;20452;-83
2021/12/29 09:28:23;;;;;;;3.70;3.40;;;16.60;58.00;;;;;;5120412;27;20463;-82
2021/12/29 09:30:52;;;;;;;4.90;3.30;;;16.60;58.10;;;;;;5103696;28;20547;-82
2021/12/29 09:33:20;;;;;;;3.43;2.93;;;16.60;58.00;;;;;;5120988;28;20436;-84
2021/12/29 09:35:51;;;;;;;3.67;3.30;;;16.60;58.00;;;;;;5120779;28;20463;-82
2021/12/29 09:38:20;;;;;;;3.20;2.90;;;16.70;58.00;;;;;;5120932;28;20439;-84
2021/12/29 09:40:48;;;;;;;3.90;3.57;;;16.70;58.10;;;;;;5119289;28;20443;-84
2021/12/29 09:43:16;;;;;;;3.97;3.57;;;16.70;58.00;;;;;;5120233;28;20543;-81
2021/12/29 09:45:45;;;;;;;4.73;3.60;;;16.60;57.90;;;;;;5115403;28;20507;-81
2021/12/29 09:48:13;;;;;;;3.93;3.53;;;16.60;58.00;;;;;;5117048;27;21213;-82
2021/12/29 09:50:42;;;;;;;4.10;3.50;;;16.60;58.00;;;;;;5121971;28;20530;-81
2021/12/29 09:53:11;;;;;;;4.47;3.70;;;16.70;58.00;;;;;;5110083;28;20475;-82
2021/12/29 09:55:39;;;;;;;4.87;3.97;;;16.70;57.90;;;;;;5104642;28;20444;-82
2021/12/29 09:58:07;;;;;;;5.37;4.63;;;16.70;57.70;;;;;;5114236;28;20460;-82
2021/12/29 10:00:37;;;;;;;6.40;4.30;;;16.70;57.80;;;;;;5108925;28;20467;-81
2021/12/29 10:03:07;;;;;;;6.70;4.33;;;16.70;57.70;;;;;;5112689;28;20424;-81
2021/12/29 10:05:36;;;;;;;6.83;4.50;;;16.70;57.60;;;;;;5120868;28;20475;-82
2021/12/29 10:08:06;;;;;;;4.90;3.50;;;16.80;57.80;;;;;;5114558;28;20447;-81
2021/12/29 10:10:36;;;;;;;6.63;4.63;;;16.70;57.60;;;;;;5111963;28;20432;-83
2021/12/29 10:13:04;;;;;;;10.97;4.47;;;16.80;57.60;;;;;;5113759;28;20476;-81
2021/12/29 10:15:33;;;;;;;6.47;4.20;;;16.80;57.60;;;;;;5115563;28;20481;-82
2021/12/29 10:18:04;;;;;;;6.00;4.43;;;16.80;57.50;;;;;;5115758;28;20457;-82
2021/12/29 10:20:31;;;;;;;6.27;4.67;;;16.80;57.50;;;;;;5116204;28;20499;-82
2021/12/29 10:23:00;;;;;;;4.70;4.20;;;16.80;57.50;;;;;;5120323;28;20451;-81
2021/12/29 10:25:36;;;;;;;6.60;5.03;;;16.80;57.60;;;;;;5116089;28;20443;-80
2021/12/29 10:28:04;;;;;;;7.30;5.20;;;16.70;57.40;;;;;;5108623;28;20475;-81
2021/12/29 10:30:33;;;;;;;5.80;4.73;;;16.70;57.50;;;;;;5120522;28;20499;-82
2021/12/29 10:33:10;;;;;;;5.30;4.50;;;16.80;57.50;;;;;;5117897;28;20516;-82
2021/12/29 10:35:38;;;;;;;6.27;4.60;;;16.80;57.50;;;;;;5120390;28;20460;-83
2021/12/29 10:38:14;;;;;;;7.77;5.03;;;16.80;57.50;;;;;;5111008;28;20437;-83
2021/12/29 10:40:43;;;;;;;6.50;4.80;;;16.70;57.40;;;;;;5117235;28;20451;-83
2021/12/29 10:43:12;;;;;;;6.37;4.60;;;16.80;58.00;;;;;;5100640;28;20491;-80
2021/12/29 10:45:41;;;;;;;7.70;5.33;;;16.80;57.50;;;;;;5108349;28;20984;-79
2021/12/29 10:48:18;;;;;;;8.60;5.60;;;16.80;57.50;;;;;;5119448;28;20428;-80
2021/12/29 10:51:00;;;;;;;8.90;5.40;;;16.80;57.50;;;;;;5112006;28;20517;-80
2021/12/29 10:53:28;;;;;;;9.10;5.73;;;16.80;57.40;;;;;;5100061;28;20559;-80
2021/12/29 10:55:58;;;;;;;8.23;5.33;;;16.80;57.40;;;;;;5109853;27;20511;-80
2021/12/29 10:58:26;;;;;;;7.80;5.50;;;16.80;57.40;;;;;;5108995;28;20467;-81
2021/12/29 11:00:59;;;;;;;7.67;5.43;;;16.80;57.30;;;;;;5118065;28;20467;-81
2021/12/29 11:03:27;;;;;;;7.10;5.20;;;16.80;57.20;;;;;;5120051;28;20519;-82
2021/12/29 11:05:59;;;;;;;8.90;5.70;;;16.80;57.30;;;;;;5119576;28;20922;-80
2021/12/29 11:08:28;;;;;;;11.27;6.23;;;16.80;57.30;;;;;;5118798;28;20573;-81
2021/12/29 11:11:02;;;;;;;9.47;5.60;;;16.80;57.30;;;;;;5118769;28;20503;-81
2021/12/29 11:13:31;;;;;;;19.00;5.47;;;16.80;57.20;;;;;;5112387;28;20456;-80
2021/12/29 11:15:59;;;;;;;19.23;5.67;;;17.00;63.50;;;;;;5116007;28;20527;-83
2021/12/29 11:18:27;;;;;;;27.37;5.50;;;18.00;65.80;;;;;;5104285;28;20437;-81
2021/12/29 11:20:55;;;;;;;26.00;6.97;;;18.70;64.60;;;;;;5116115;28;20998;-81
2021/12/29 11:23:35;;;;;;;23.13;7.17;;;19.10;63.80;;;;;;5118039;28;20520;-83
2021/12/29 11:26:05;;;;;;;29.50;7.27;;;19.50;63.20;;;;;;5118197;28;20438;-83
2021/12/29 11:28:34;;;;;;;16.57;7.50;;;19.70;62.20;;;;;;5112125;28;20488;-82
2021/12/29 11:31:05;;;;;;;22.73;7.70;;;20.00;61.70;;;;;;5117744;28;20506;-81
2021/12/29 11:33:33;;;;;;;33.40;8.33;;;20.10;60.90;;;;;;5121219;28;20959;-81
2021/12/29 11:36:01;;;;;;;21.37;8.40;;;20.30;60.40;;;;;;5119460;28;20448;-82
2021/12/29 11:38:29;;;;;;;17.40;8.07;;;20.50;59.90;;;;;;5124607;28;20452;-79
2021/12/29 11:40:58;;;;;;;16.33;7.77;;;20.60;59.60;;;;;;5114905;28;20523;-79
2021/12/29 11:43:27;;;;;;;24.17;8.57;;;20.60;59.00;;;;;;5119881;28;20519;-79
2021/12/29 11:45:57;;;;;;;15.07;8.10;;;20.80;58.70;;;;;;5118725;28;20432;-84
2021/12/29 11:48:26;;;;;;;22.60;8.10;;;20.80;58.40;;;;;;5122358;28;20471;-84
2021/12/29 11:50:56;;;;;;;14.37;7.40;;;20.90;57.70;;;;;;5119873;28;20969;-84
2021/12/29 11:53:43;;;;;;;12.97;7.37;;;21.00;57.70;;;;;;5118135;28;20483;-82
2021/12/29 11:56:14;;;;;;;17.70;7.97;;;21.10;57.30;;;;;;5124639;28;20462;-84
2021/12/29 11:58:43;;;;;;;21.43;7.40;;;21.10;57.10;;;;;;5124690;28;20451;-85
2021/12/29 12:01:17;;;;;;;16.03;7.40;;;21.20;56.90;;;;;;5121473;28;20404;-82
2021/12/29 12:03:50;;;;;;;18.43;7.10;;;21.20;56.60;;;;;;5114502;28;20468;-81
2021/12/29 12:06:27;;;;;;;13.37;7.27;;;21.30;56.40;;;;;;5122507;28;20447;-83
2021/12/29 12:09:07;;;;;;;14.90;7.17;;;21.30;56.20;;;;;;5115727;28;20474;-83
2021/12/29 12:11:35;;;;;;;15.90;7.40;;;21.30;55.20;;;;;;5117551;28;20500;-82
2021/12/29 12:14:04;;;;;;;16.40;6.83;;;21.30;55.60;;;;;;5121421;28;20502;-82
2021/12/29 12:16:32;;;;;;;9.90;6.40;;;21.30;55.20;;;;;;5121014;28;20523;-82
2021/12/29 12:19:00;;;;;;;19.27;8.00;;;21.30;55.00;;;;;;5122133;28;20440;-84
2021/12/29 12:21:30;;;;;;;12.83;8.60;;;21.20;53.60;;;;;;5119659;27;20491;-84
2021/12/29 12:24:10;;;;;;;18.77;9.20;;;20.70;52.70;;;;;;5123080;28;20558;-82
2021/12/29 12:26:52;;;;;;;17.43;9.43;;;20.20;53.60;;;;;;5119840;28;20489;-83
2021/12/29 12:29:22;;;;;;;20.50;10.43;;;19.90;53.50;;;;;;5119686;28;20459;-81
2021/12/29 12:32:09;;;;;;;15.90;10.53;;;19.60;53.70;;;;;;5112699;28;20744;-81
2021/12/29 12:34:49;;;;;;;16.33;10.47;;;19.30;54.60;;;;;;5109594;28;20436;-81
2021/12/29 12:37:17;;;;;;;15.97;10.43;;;19.10;54.40;;;;;;5108308;28;20444;-81
2021/12/29 12:39:56;;;;;;;17.07;10.40;;;18.80;54.40;;;;;;5113256;28;20478;-81
2021/12/29 12:42:25;;;;;;;19.13;10.67;;;18.60;55.30;;;;;;5107532;28;20464;-81
2021/12/29 12:44:54;;;;;;;18.97;10.20;;;18.50;55.20;;;;;;5107159;28;20468;-82
2021/12/29 12:47:22;;;;;;;17.27;10.30;;;18.40;55.40;;;;;;5119047;28;20553;-81
2021/12/29 12:49:51;;;;;;;19.43;11.30;;;18.30;55.60;;;;;;5113233;28;20424;-81
2021/12/29 12:52:20;;;;;;;17.40;10.53;;;18.20;55.70;;;;;;5099445;28;20433;-85
2021/12/29 12:54:50;;;;;;;13.53;9.90;;;18.10;56.20;;;;;;5098765;28;20456;-81
2021/12/29 12:57:32;;;;;;;15.90;9.80;;;18.00;55.60;;;;;;5116841;28;20526;-81
2021/12/29 13:00:11;;;;;;;16.80;10.70;;;18.00;56.50;;;;;;5120644;28;20495;-82
2021/12/29 13:02:41;;;;;;;21.00;11.00;;;17.80;56.20;;;;;;5120203;28;20454;-84
2021/12/29 13:05:10;;;;;;;17.97;10.70;;;17.70;56.80;;;;;;5119992;28;20460;-81
2021/12/29 13:07:39;;;;;;;14.50;10.00;;;17.70;57.00;;;;;;5120203;28;20486;-83
2021/12/29 13:10:08;;;;;;;17.00;10.73;;;17.70;56.40;;;;;;5100719;28;20428;-79
2021/12/29 13:12:39;;;;;;;17.60;9.90;;;17.60;57.10;;;;;;5098792;28;20463;-80
2021/12/29 13:15:10;;;;;;;18.33;10.00;;;17.50;56.80;;;;;;5116773;28;20519;-80
2021/12/29 13:17:38;;;;;;;17.33;11.03;;;17.50;57.10;;;;;;5116548;28;20518;-81
2021/12/29 13:20:07;;;;;;;17.30;10.50;;;17.40;57.00;;;;;;5116542;28;20469;-80
2021/12/29 13:22:36;;;;;;;16.63;9.93;;;17.40;57.40;;;;;;5116745;28;20476;-80
2021/12/29 13:25:09;;;;;;;15.67;10.43;;;17.30;57.10;;;;;;5116508;28;20483;-80
2021/12/29 13:27:37;;;;;;;16.83;10.50;;;17.20;57.80;;;;;;5116620;28;20520;-80
2021/12/29 13:30:09;;;;;;;15.93;9.73;;;17.20;58.10;;;;;;5116356;28;20557;-79
2021/12/29 13:32:48;;;;;;;17.13;10.40;;;17.30;57.80;;;;;;5113805;28;20458;-80
2021/12/29 13:35:15;;;;;;;13.90;9.30;;;17.20;57.60;;;;;;5096073;28;20672;-80
2021/12/29 13:37:44;;;;;;;14.27;9.20;;;17.20;58.30;;;;;;5096061;28;20500;-80
2021/12/29 13:40:13;;;;;;;17.83;9.03;;;17.20;58.00;;;;;;5096121;28;20497;-80
2021/12/29 13:42:42;;;;;;;17.30;9.30;;;17.20;58.00;;;;;;5096006;28;20447;-80
2021/12/29 13:45:21;;;;;;;17.70;9.43;;;17.20;58.00;;;;;;5095812;28;20467;-80
2021/12/29 13:47:50;;;;;;;14.57;8.30;;;17.20;58.30;;;;;;5096651;28;20946;-80